Time;durP1;ratioP1;P1;durP2;ratioP2;P2;SDS_P1;SDS_P2;PMS_P1;PMS_P2;Temp;Humidity;BMP_temperature;BMP_pressure;BME280_temperature;BME280_humidity;BME280_pressure;Samples;Min_cycle;Max_cycle;Signal;HPM_P1;HPM_P2
2023/07/03 00:00:48;;;;;;;25.42;22.63;;;538.00;2406.40;;;;;;5094061;28;20024;-79
2023/07/03 00:03:14;;;;;;;23.38;20.25;;;537.80;2406.40;;;;;;5093759;28;20077;-77
2023/07/03 00:05:43;;;;;;;24.40;21.75;;;538.00;2406.40;;;;;;5092997;28;20032;-78
2023/07/03 00:08:17;;;;;;;29.52;20.73;;;537.80;2406.40;;;;;;5092665;28;20055;-77
2023/07/03 00:10:43;;;;;;;23.67;21.27;;;537.90;2406.40;;;;;;5092680;28;20034;-78
2023/07/03 00:13:10;;;;;;;23.90;20.75;;;538.00;2406.40;;;;;;5092783;28;20024;-79
2023/07/03 00:15:36;;;;;;;25.75;21.48;;;538.00;2406.40;;;;;;5093655;28;20028;-79
2023/07/03 00:18:02;;;;;;;24.55;21.65;;;538.30;2406.40;;;;;;5093804;28;20107;-80
2023/07/03 00:20:28;;;;;;;23.70;21.10;;;537.90;2406.40;;;;;;5093987;28;20036;-79
2023/07/03 00:22:55;;;;;;;23.20;20.73;;;537.90;2406.40;;;;;;5092604;28;20449;-80
2023/07/03 00:25:22;;;;;;;25.20;22.58;;;537.80;2406.40;;;;;;5091968;28;20028;-78
2023/07/03 00:27:48;;;;;;;23.88;20.73;;;537.90;2406.40;;;;;;5093852;28;20024;-78
2023/07/03 00:30:15;;;;;;;24.08;21.23;;;538.00;2406.40;;;;;;5081704;28;20024;-78
2023/07/03 00:32:41;;;;;;;24.42;21.83;;;538.00;2406.40;;;;;;5072266;28;20514;-79
2023/07/03 00:35:07;;;;;;;25.52;21.77;;;538.00;2406.40;;;;;;5072314;28;20059;-79
2023/07/03 00:37:33;;;;;;;22.50;20.10;;;537.90;2406.40;;;;;;5072047;28;20426;-78
2023/07/03 00:39:59;;;;;;;23.48;21.05;;;537.60;2406.40;;;;;;5071657;28;20025;-80
2023/07/03 00:42:27;;;;;;;22.95;20.58;;;512.70;2380.80;;;;;;5073955;28;20051;-79
2023/07/03 00:44:53;;;;;;;25.67;21.58;;;512.90;2380.80;;;;;;5072074;28;20036;-80
2023/07/03 00:47:19;;;;;;;23.90;20.13;;;512.90;2380.80;;;;;;5072368;28;20040;-78
2023/07/03 00:49:45;;;;;;;25.58;21.38;;;512.90;2380.80;;;;;;5072166;28;20031;-78
2023/07/03 00:52:12;;;;;;;22.33;20.08;;;512.90;2380.80;;;;;;5071896;28;20376;-79
2023/07/03 00:54:38;;;;;;;25.75;21.75;;;512.90;2380.80;;;;;;5072156;28;20035;-79
2023/07/03 00:57:05;;;;;;;23.48;21.23;;;537.70;2406.40;;;;;;5072172;28;20036;-78
2023/07/03 00:59:33;;;;;;;23.23;20.88;;;537.70;2406.40;;;;;;5073377;28;20463;-79
2023/07/03 01:02:13;;;;;;;25.17;22.52;;;537.70;2406.40;;;;;;5091733;28;20024;-78
2023/07/03 01:05:09;;;;;;;24.48;21.92;;;537.70;2406.40;;;;;;5092246;28;20040;-79
2023/07/03 01:07:37;;;;;;;24.23;21.70;;;537.80;2406.40;;;;;;5092275;28;20030;-80
2023/07/03 01:10:09;;;;;;;24.58;22.02;;;537.80;2406.40;;;;;;5092046;28;20055;-79
2023/07/03 01:12:40;;;;;;;24.00;21.40;;;537.80;2406.40;;;;;;5091922;28;20020;-80
2023/07/03 01:15:10;;;;;;;23.02;20.48;;;537.60;2406.40;;;;;;5093408;28;20028;-79
2023/07/03 01:17:40;;;;;;;23.88;21.25;;;512.90;2380.80;;;;;;5092180;28;20065;-79
2023/07/03 01:20:09;;;;;;;23.83;21.40;;;537.70;2406.40;;;;;;5091987;28;20509;-79
2023/07/03 01:22:41;;;;;;;25.05;21.80;;;537.70;2406.40;;;;;;5092255;28;20031;-78
2023/07/03 01:25:10;;;;;;;24.45;21.80;;;537.70;2406.40;;;;;;5092154;28;20130;-78
2023/07/03 01:27:41;;;;;;;26.73;21.50;;;537.70;2406.40;;;;;;5091802;28;20451;-80
2023/07/03 01:30:10;;;;;;;25.08;22.48;;;537.70;2406.40;;;;;;5092155;28;20066;-78
2023/07/03 01:32:38;;;;;;;23.85;21.10;;;537.70;2406.40;;;;;;5093431;28;20147;-80
2023/07/03 01:35:05;;;;;;;25.80;23.23;;;537.60;2406.40;;;;;;5091704;28;20035;-80
2023/07/03 01:37:34;;;;;;;23.08;20.73;;;512.90;2380.80;;;;;;5092085;28;20052;-79
2023/07/03 01:40:01;;;;;;;23.70;20.95;;;512.90;2380.80;;;;;;5093550;28;20103;-79
2023/07/03 01:42:29;;;;;;;24.17;21.60;;;537.60;2406.40;;;;;;5091757;28;20077;-78
2023/07/03 01:44:55;;;;;;;22.80;20.45;;;512.90;2380.80;;;;;;5091971;28;20054;-79
2023/07/03 01:47:21;;;;;;;26.05;20.98;;;537.60;2406.40;;;;;;5091590;28;20424;-79
2023/07/03 01:49:50;;;;;;;23.10;20.38;;;512.80;2380.80;;;;;;5093068;28;20035;-80
2023/07/03 01:52:20;;;;;;;24.45;21.85;;;512.90;2380.80;;;;;;5096684;28;20024;-79
2023/07/03 01:55:21;;;;;;;26.23;22.70;;;512.70;2380.80;;;;;;5094985;28;20395;-79
2023/07/03 01:58:10;;;;;;;24.48;20.75;;;512.80;2380.80;;;;;;5057124;28;20111;-78
2023/07/03 02:00:50;;;;;;;22.73;19.92;;;512.70;2380.80;;;;;;5074110;28;20107;-79
2023/07/03 02:03:36;;;;;;;23.67;21.13;;;512.70;2380.80;;;;;;5073711;28;20434;-79
2023/07/03 02:06:12;;;;;;;24.42;20.75;;;512.70;2380.80;;;;;;5056985;28;20039;-78
2023/07/03 02:08:38;;;;;;;25.40;20.15;;;512.90;2380.80;;;;;;5056605;28;20504;-78
2023/07/03 02:11:14;;;;;;;23.08;20.58;;;512.60;2380.80;;;;;;5056933;28;20086;-79
2023/07/03 02:13:40;;;;;;;22.27;20.02;;;512.70;2380.80;;;;;;5056951;28;20160;-80
2023/07/03 02:16:05;;;;;;;23.05;20.65;;;512.70;2380.80;;;;;;5073384;28;20178;-78
2023/07/03 02:18:31;;;;;;;23.45;20.95;;;512.70;2380.80;;;;;;5073870;28;20086;-79
2023/07/03 02:20:57;;;;;;;22.60;19.48;;;512.70;2380.80;;;;;;5056810;28;20033;-80
2023/07/03 02:23:23;;;;;;;24.73;20.50;;;512.60;2380.80;;;;;;5056496;28;20072;-79
2023/07/03 02:25:48;;;;;;;23.88;19.92;;;512.70;2380.80;;;;;;5056681;28;20439;-78
2023/07/03 02:28:14;;;;;;;26.13;19.30;;;512.60;2380.80;;;;;;5056809;28;20107;-79
2023/07/03 02:30:40;;;;;;;24.38;21.88;;;512.60;2380.80;;;;;;5056445;28;20070;-78
2023/07/03 02:33:06;;;;;;;22.83;20.42;;;512.50;2380.80;;;;;;5070173;28;20045;-79
2023/07/03 02:35:31;;;;;;;22.33;19.98;;;512.60;2380.80;;;;;;5094675;28;20380;-79
2023/07/03 02:37:57;;;;;;;25.50;21.25;;;512.60;2380.80;;;;;;5094312;28;20028;-77
2023/07/03 02:40:23;;;;;;;22.92;20.50;;;512.50;2380.80;;;;;;5095811;28;20031;-78
2023/07/03 02:42:49;;;;;;;25.40;21.83;;;512.50;2380.80;;;;;;5094574;28;20024;-78
2023/07/03 02:45:15;;;;;;;23.02;19.77;;;512.60;2380.80;;;;;;5094361;28;20169;-78
2023/07/03 02:47:41;;;;;;;28.70;21.23;;;512.60;2380.80;;;;;;5095440;28;20040;-79
2023/07/03 02:50:08;;;;;;;27.25;22.35;;;512.50;2380.80;;;;;;5095626;28;20169;-77
2023/07/03 02:52:33;;;;;;;24.75;20.38;;;512.50;2380.80;;;;;;5094355;28;20027;-79
2023/07/03 02:54:59;;;;;;;24.55;21.90;;;512.60;2380.80;;;;;;5090222;28;20033;-79
2023/07/03 02:57:25;;;;;;;21.52;19.33;;;512.50;2380.80;;;;;;5091408;28;20111;-80
2023/07/03 02:59:51;;;;;;;23.42;20.45;;;512.30;2380.80;;;;;;5074018;28;20078;-79
2023/07/03 03:02:18;;;;;;;22.77;20.38;;;512.50;2380.80;;;;;;5074644;28;20025;-80
2023/07/03 03:04:47;;;;;;;22.30;19.95;;;512.50;2380.80;;;;;;5075320;28;20024;-80
2023/07/03 03:07:13;;;;;;;24.08;21.55;;;512.50;2380.80;;;;;;5073838;28;20442;-82
2023/07/03 03:09:40;;;;;;;23.50;21.08;;;512.50;2380.80;;;;;;5073698;28;20048;-80
2023/07/03 03:12:06;;;;;;;25.17;21.63;;;512.60;2380.80;;;;;;5093025;28;20050;-78
2023/07/03 03:14:32;;;;;;;25.70;22.80;;;512.50;2380.80;;;;;;5086855;28;20028;-79
2023/07/03 03:16:59;;;;;;;23.55;21.02;;;512.30;2380.80;;;;;;5073498;28;20040;-81
2023/07/03 03:19:25;;;;;;;25.65;22.90;;;512.20;2380.80;;;;;;5073702;28;20074;-81
2023/07/03 03:21:51;;;;;;;28.25;23.63;;;512.20;2380.80;;;;;;5073627;28;20025;-82
2023/07/03 03:24:17;;;;;;;31.52;22.35;;;512.20;2380.80;;;;;;5073607;28;20028;-82
2023/07/03 03:26:43;;;;;;;23.98;21.48;;;512.30;2380.80;;;;;;5074645;28;20024;-82
2023/07/03 03:29:09;;;;;;;25.48;20.90;;;512.30;2380.80;;;;;;5073423;28;20524;-82
2023/07/03 03:31:35;;;;;;;24.63;21.55;;;512.40;2380.80;;;;;;5073690;28;20384;-82
2023/07/03 03:34:01;;;;;;;24.45;21.42;;;512.50;2380.80;;;;;;5073153;28;20434;-81
2023/07/03 03:36:27;;;;;;;23.08;20.77;;;512.30;2380.80;;;;;;5073325;28;20075;-82
2023/07/03 03:38:52;;;;;;;23.58;20.98;;;512.30;2380.80;;;;;;5073288;28;20028;-81
2023/07/03 03:41:18;;;;;;;23.10;20.35;;;512.50;2380.80;;;;;;5072953;28;20456;-80
2023/07/03 03:43:47;;;;;;;23.45;20.95;;;512.50;2380.80;;;;;;5074604;28;20448;-81
2023/07/03 03:46:13;;;;;;;21.42;19.30;;;512.30;2380.80;;;;;;5072969;28;20033;-80
2023/07/03 03:48:39;;;;;;;23.08;20.58;;;512.40;2380.80;;;;;;5073026;28;20025;-80
2023/07/03 03:51:04;;;;;;;22.27;19.05;;;512.30;2380.80;;;;;;5074360;28;20036;-80
2023/07/03 03:53:30;;;;;;;22.48;19.45;;;512.30;2380.80;;;;;;5072557;28;20082;-80
2023/07/03 03:55:56;;;;;;;20.80;18.58;;;512.40;2380.80;;;;;;5073917;28;20033;-80
2023/07/03 03:58:22;;;;;;;22.48;19.90;;;512.20;2380.80;;;;;;5074286;28;20056;-81
2023/07/03 04:00:50;;;;;;;20.80;18.80;;;512.30;2380.80;;;;;;5078250;28;20020;-79
2023/07/03 04:03:16;;;;;;;21.23;19.08;;;512.40;2380.80;;;;;;5092785;28;20024;-80
2023/07/03 04:05:43;;;;;;;20.98;18.77;;;512.40;2380.80;;;;;;5092581;28;20054;-80
2023/07/03 04:08:09;;;;;;;23.27;20.98;;;512.50;2380.80;;;;;;5092156;28;20109;-77
2023/07/03 04:10:35;;;;;;;22.55;19.73;;;512.40;2380.80;;;;;;5093594;28;20059;-78
2023/07/03 04:13:01;;;;;;;22.27;19.30;;;512.20;2380.80;;;;;;5093005;28;20043;-79
2023/07/03 04:15:32;;;;;;;24.00;19.80;;;512.30;2380.80;;;;;;5091313;28;20028;-80
2023/07/03 04:17:58;;;;;;;20.95;18.85;;;512.40;2380.80;;;;;;5092656;28;20032;-77
2023/07/03 04:20:25;;;;;;;22.08;19.73;;;512.50;2380.80;;;;;;5092412;28;20435;-78
2023/07/03 04:22:51;;;;;;;23.35;21.00;;;512.50;2380.80;;;;;;5092309;28;20024;-77
2023/07/03 04:25:17;;;;;;;29.75;25.23;;;512.60;2380.80;;;;;;5092598;28;20077;-77
2023/07/03 04:27:43;;;;;;;27.25;24.35;;;512.60;2380.80;;;;;;5092533;28;20047;-77
2023/07/03 04:30:09;;;;;;;35.60;31.90;;;512.60;2380.80;;;;;;5092249;28;20456;-77
2023/07/03 04:32:36;;;;;;;22.85;20.50;;;512.70;2380.80;;;;;;5093568;28;20429;-78
2023/07/03 04:35:03;;;;;;;24.60;19.33;;;512.50;2380.80;;;;;;5092321;28;20024;-78
2023/07/03 04:37:29;;;;;;;22.35;19.30;;;512.50;2380.80;;;;;;5093090;28;20039;-77
2023/07/03 04:39:56;;;;;;;22.98;19.73;;;512.50;2380.80;;;;;;5092615;28;20043;-77
2023/07/03 04:42:22;;;;;;;23.98;19.52;;;512.60;2380.80;;;;;;5093024;28;20031;-77
2023/07/03 04:44:49;;;;;;;26.00;20.33;;;512.60;2380.80;;;;;;5093374;28;20458;-77
2023/07/03 04:47:18;;;;;;;22.05;19.75;;;512.70;2380.80;;;;;;5092252;28;20024;-78
2023/07/03 04:49:45;;;;;;;25.65;19.52;;;512.60;2380.80;;;;;;5092583;28;20491;-77
2023/07/03 04:52:13;;;;;;;22.35;19.35;;;512.70;2380.80;;;;;;5098059;28;20028;-77
2023/07/03 04:54:39;;;;;;;21.35;18.98;;;512.70;2380.80;;;;;;5093155;28;20035;-78
2023/07/03 04:57:05;;;;;;;25.58;19.83;;;512.70;2380.80;;;;;;5092215;28;20036;-78
2023/07/03 04:59:31;;;;;;;23.40;20.92;;;512.60;2380.80;;;;;;5093913;28;20024;-78
2023/07/03 05:01:56;;;;;;;23.25;19.50;;;512.70;2380.80;;;;;;5092433;28;20398;-77
2023/07/03 05:04:22;;;;;;;21.73;18.83;;;512.90;2380.80;;;;;;5091986;28;20472;-80
2023/07/03 05:06:48;;;;;;;21.63;19.33;;;537.60;2406.40;;;;;;5093287;28;20448;-78
2023/07/03 05:09:14;;;;;;;25.17;18.75;;;537.70;2406.40;;;;;;5091746;28;20048;-77
2023/07/03 05:11:40;;;;;;;21.90;18.95;;;537.90;2406.40;;;;;;5092755;28;20490;-76
2023/07/03 05:14:06;;;;;;;23.40;18.52;;;537.90;2406.40;;;;;;5093200;28;20052;-78
2023/07/03 05:16:32;;;;;;;24.92;19.83;;;538.10;2406.40;;;;;;5091987;28;20030;-76
2023/07/03 05:18:58;;;;;;;22.20;19.88;;;538.10;2406.40;;;;;;5091502;28;20024;-77
2023/07/03 05:21:24;;;;;;;24.17;19.90;;;538.20;2406.40;;;;;;5093243;28;20122;-77
2023/07/03 05:23:50;;;;;;;22.13;18.33;;;538.30;2406.40;;;;;;5093013;28;20052;-76
2023/07/03 05:26:15;;;;;;;22.70;17.33;;;538.40;2406.40;;;;;;5093546;28;20028;-76
2023/07/03 05:28:41;;;;;;;20.27;17.20;;;538.40;2406.40;;;;;;5095848;28;20024;-75
2023/07/03 05:31:07;;;;;;;24.20;17.35;;;538.40;2406.40;;;;;;5095525;28;20078;-76
2023/07/03 05:33:33;;;;;;;19.27;17.20;;;538.50;2406.40;;;;;;5095513;28;20046;-76
2023/07/03 05:36:00;;;;;;;20.02;17.83;;;563.20;2432.00;;;;;;5094470;28;20056;-77
2023/07/03 05:38:27;;;;;;;20.45;18.15;;;563.40;2432.00;;;;;;5094932;28;20027;-75
2023/07/03 05:40:54;;;;;;;21.75;17.58;;;563.50;2432.00;;;;;;5096524;28;20050;-75
2023/07/03 05:43:20;;;;;;;20.27;17.15;;;563.30;2432.00;;;;;;5095453;28;20123;-75
2023/07/03 05:45:47;;;;;;;19.27;15.90;;;563.60;2432.00;;;;;;5096522;28;20054;-76
2023/07/03 05:48:14;;;;;;;19.67;17.58;;;563.50;2432.00;;;;;;5095322;28;20450;-75
2023/07/03 05:50:40;;;;;;;20.92;18.05;;;563.50;2432.00;;;;;;5095384;28;20062;-75
2023/07/03 05:53:05;;;;;;;21.83;17.90;;;563.60;2432.00;;;;;;5095071;28;20533;-76
2023/07/03 05:55:31;;;;;;;18.77;16.83;;;563.70;2432.00;;;;;;5096622;28;20035;-76
2023/07/03 05:57:57;;;;;;;19.42;16.63;;;563.80;2432.00;;;;;;5095302;28;20539;-76
2023/07/03 06:00:24;;;;;;;18.58;16.60;;;563.60;2432.00;;;;;;5094922;28;20049;-76
2023/07/03 06:02:53;;;;;;;19.25;17.23;;;563.70;2432.00;;;;;;5095164;28;20024;-76
2023/07/03 06:05:20;;;;;;;19.30;16.23;;;563.80;2432.00;;;;;;5096674;28;20379;-77
2023/07/03 06:07:46;;;;;;;17.17;14.70;;;563.90;2432.00;;;;;;5094893;28;20028;-77
2023/07/03 06:10:12;;;;;;;17.02;15.23;;;563.90;2432.00;;;;;;5094511;28;20052;-76
2023/07/03 06:12:39;;;;;;;18.13;15.60;;;588.80;2432.00;;;;;;5095011;28;20109;-76
2023/07/03 06:15:05;;;;;;;20.00;14.32;;;589.00;2432.00;;;;;;5096025;28;20032;-79
2023/07/03 06:17:31;;;;;;;15.90;12.75;;;588.80;2432.00;;;;;;5096214;28;20028;-79
2023/07/03 06:19:57;;;;;;;12.30;11.10;;;589.30;2432.00;;;;;;5095121;28;20399;-78
2023/07/03 06:22:23;;;;;;;18.00;12.20;;;589.40;2432.00;;;;;;5095635;28;20110;-77
2023/07/03 06:24:49;;;;;;;16.10;13.00;;;589.60;2432.00;;;;;;5096136;28;20115;-78
2023/07/03 06:27:15;;;;;;;16.35;13.15;;;589.70;2432.00;;;;;;5094512;28;20028;-78
2023/07/03 06:29:42;;;;;;;14.98;12.55;;;614.40;2432.00;;;;;;5094702;28;20035;-79
2023/07/03 06:32:09;;;;;;;13.20;11.48;;;614.50;2432.00;;;;;;5094632;28;20024;-77
2023/07/03 06:34:35;;;;;;;12.50;10.48;;;614.70;2432.00;;;;;;5095519;28;20479;-79
2023/07/03 06:37:05;;;;;;;11.43;9.32;;;614.80;2432.00;;;;;;5093792;28;20034;-78
2023/07/03 06:39:31;;;;;;;13.93;8.20;;;615.00;2432.00;;;;;;5095920;28;20016;-79
2023/07/03 06:41:57;;;;;;;9.90;7.78;;;614.90;2432.00;;;;;;5094297;28;20168;-78
2023/07/03 06:44:22;;;;;;;14.60;8.85;;;615.10;2432.00;;;;;;5094417;28;20476;-79
2023/07/03 06:46:50;;;;;;;10.95;7.78;;;615.10;2432.00;;;;;;5094400;28;20119;-79
2023/07/03 06:49:17;;;;;;;9.40;7.38;;;615.30;2432.00;;;;;;5094120;28;20035;-81
2023/07/03 06:51:43;;;;;;;8.93;6.75;;;640.00;2432.00;;;;;;5094468;28;20443;-81
2023/07/03 06:54:09;;;;;;;10.02;6.90;;;640.00;2432.00;;;;;;5092902;28;20055;-79
2023/07/03 06:56:35;;;;;;;8.45;7.45;;;640.20;2432.00;;;;;;5095092;28;20032;-82
2023/07/03 06:59:01;;;;;;;8.95;7.13;;;640.20;2432.00;;;;;;5093549;28;20028;-79
2023/07/03 07:01:28;;;;;;;9.02;6.82;;;640.40;2432.00;;;;;;5094120;28;20547;-79
2023/07/03 07:03:54;;;;;;;8.23;6.10;;;640.40;2432.00;;;;;;5086052;28;20043;-80
2023/07/03 07:06:26;;;;;;;7.75;6.10;;;640.60;2432.00;;;;;;5074351;28;20472;-78
2023/07/03 07:08:52;;;;;;;10.05;6.45;;;640.60;2432.00;;;;;;5073502;28;20040;-79
2023/07/03 07:11:23;;;;;;;7.90;6.13;;;640.70;2432.00;;;;;;5074423;28;20028;-80
2023/07/03 07:13:50;;;;;;;9.80;6.30;;;640.70;2432.00;;;;;;5078549;28;20025;-79
2023/07/03 07:16:22;;;;;;;8.57;7.05;;;640.90;2432.00;;;;;;5078516;28;20033;-79
2023/07/03 07:18:52;;;;;;;10.20;6.15;;;640.90;2432.00;;;;;;5073693;28;20036;-79
2023/07/03 07:21:18;;;;;;;13.05;6.63;;;665.60;2432.00;;;;;;5073420;28;20033;-79
2023/07/03 07:23:55;;;;;;;8.57;5.93;;;;;;;;;;5074354;28;20025;-78
2023/07/03 07:26:23;;;;;;;9.07;6.10;;;666.00;2432.00;;;;;;5075052;28;20024;-80
2023/07/03 07:28:49;;;;;;;10.60;5.35;;;665.90;2432.00;;;;;;5073266;28;20111;-78
2023/07/03 07:31:25;;;;;;;10.02;6.05;;;665.90;2432.00;;;;;;5073962;28;20107;-79
2023/07/03 07:33:51;;;;;;;7.43;5.60;;;666.10;2432.00;;;;;;5074155;28;20021;-80
2023/07/03 07:36:22;;;;;;;7.13;4.63;;;666.20;2432.00;;;;;;5073115;28;20039;-79
2023/07/03 07:38:52;;;;;;;6.20;4.72;;;666.30;2432.00;;;;;;5074069;28;20020;-80
2023/07/03 07:41:19;;;;;;;8.85;5.15;;;666.30;2432.00;;;;;;5074445;28;20069;-79
2023/07/03 07:43:47;;;;;;;6.97;5.00;;;666.20;2432.00;;;;;;5073022;28;20387;-79
2023/07/03 07:46:13;;;;;;;9.05;6.22;;;666.40;2432.00;;;;;;5072653;28;20384;-79
2023/07/03 07:48:39;;;;;;;9.55;5.28;;;691.20;2432.00;;;;;;5072927;28;20142;-77
2023/07/03 07:51:11;;;;;;;6.95;5.28;;;691.20;2432.00;;;;;;5074366;28;20111;-78
2023/07/03 07:53:38;;;;;;;8.07;5.28;;;691.20;2432.00;;;;;;5074133;28;20138;-78
2023/07/03 07:56:07;;;;;;;8.57;4.85;;;691.20;2432.00;;;;;;5072723;28;20033;-78
2023/07/03 07:58:33;;;;;;;6.90;4.38;;;666.50;2432.00;;;;;;5072406;28;20115;-77
2023/07/03 08:00:59;;;;;;;6.35;4.68;;;691.20;2432.00;;;;;;5074054;28;20040;-77
2023/07/03 08:03:26;;;;;;;6.60;5.05;;;666.30;2432.00;;;;;;5074009;28;20025;-79
2023/07/03 08:06:04;;;;;;;7.45;5.00;;;666.30;2432.00;;;;;;5072318;28;20173;-78
2023/07/03 08:08:31;;;;;;;7.35;5.15;;;666.20;2432.00;;;;;;5073730;28;20044;-78
2023/07/03 08:11:00;;;;;;;10.95;5.50;;;666.20;2432.00;;;;;;5072622;28;20024;-79
2023/07/03 08:13:27;;;;;;;6.47;5.57;;;691.20;2432.00;;;;;;5073486;28;20092;-79
2023/07/03 08:15:54;;;;;;;9.77;5.68;;;691.20;2432.00;;;;;;5073742;28;20491;-79
2023/07/03 08:18:20;;;;;;;7.80;5.25;;;691.20;2432.00;;;;;;5073775;28;20021;-80
2023/07/03 08:20:46;;;;;;;7.25;5.00;;;691.20;2432.00;;;;;;5072114;28;20031;-80
2023/07/03 08:23:12;;;;;;;6.63;5.07;;;691.40;2432.00;;;;;;5072473;28;20024;-80
2023/07/03 08:25:39;;;;;;;8.00;5.05;;;691.70;2432.00;;;;;;5072433;28;20028;-79
2023/07/03 08:28:05;;;;;;;8.23;4.82;;;691.90;2432.00;;;;;;5072090;28;20066;-80
2023/07/03 08:30:31;;;;;;;7.07;4.80;;;692.10;2432.00;;;;;;5072362;28;20020;-80
2023/07/03 08:32:56;;;;;;;5.60;4.00;;;716.80;2432.00;;;;;;5072298;28;20078;-80
2023/07/03 08:35:22;;;;;;;6.38;4.10;;;716.90;2432.00;;;;;;5073334;28;20036;-80
2023/07/03 08:37:48;;;;;;;5.40;4.13;;;717.10;2432.00;;;;;;5073659;28;20025;-79
2023/07/03 08:40:19;;;;;;;7.15;3.15;;;717.20;2432.00;;;;;;5072021;28;20059;-79
2023/07/03 08:42:53;;;;;;;4.57;2.90;;;717.30;2432.00;;;;;;5071937;28;20031;-80
2023/07/03 08:45:28;;;;;;;8.32;3.35;;;717.40;2406.40;;;;;;5072369;28;20056;-80
2023/07/03 08:47:56;;;;;;;6.13;3.42;;;717.70;2329.60;;;;;;5071944;28;20082;-79
2023/07/03 08:50:24;;;;;;;5.78;3.05;;;742.40;2355.20;;;;;;5072131;28;20028;-79
2023/07/03 08:53:03;;;;;;;6.85;3.03;;;742.50;2304.00;;;;;;5073696;28;20063;-80
2023/07/03 08:55:43;;;;;;;4.88;3.25;;;742.60;2278.40;;;;;;5071753;28;20464;-80
2023/07/03 08:58:09;;;;;;;4.32;2.78;;;742.90;2278.40;;;;;;5072206;28;20395;-79
2023/07/03 09:00:40;;;;;;;4.40;2.95;;;;;;;;;;5072923;28;20021;-80
2023/07/03 09:03:12;;;;;;;6.40;2.83;;;;;;;;;;5076928;28;20365;-80
2023/07/03 09:05:46;;;;;;;6.05;2.67;;;;;;;;;;5077550;28;20035;-80
2023/07/03 09:08:19;;;;;;;5.13;3.50;;;;;;;;;;5075459;28;20048;-79
2023/07/03 09:10:48;;;;;;;6.38;3.58;;;;;;;;;;5077359;28;20101;-78
2023/07/03 09:13:21;;;;;;;3.92;2.85;;;;;;;;;;5075909;28;20031;-80
2023/07/03 09:15:50;;;;;;;5.90;2.55;;;;;;;;;;5076563;28;20051;-80
2023/07/03 09:18:22;;;;;;;5.85;2.65;;;;;;;;;;5077159;28;20070;-80
2023/07/03 09:20:48;;;;;;;3.90;2.58;;;768.40;2150.40;;;;;;5075844;28;20024;-80
2023/07/03 09:23:27;;;;;;;7.55;3.00;;;768.30;2124.80;;;;;;5076818;28;20032;-79
2023/07/03 09:26:09;;;;;;;4.07;2.72;;;768.60;2150.40;;;;;;5075771;28;20037;-79
2023/07/03 09:28:39;;;;;;;6.60;2.75;;;768.60;2124.80;;;;;;5075616;28;20511;-78
2023/07/03 09:31:05;;;;;;;5.35;2.85;;;768.60;2099.20;;;;;;5075307;28;20376;-79
2023/07/03 09:33:31;;;;;;;5.13;2.50;;;;;;;;;;5076656;28;20025;-82
2023/07/03 09:36:01;;;;;;;4.82;2.80;;;;;;;;;;5075453;28;20526;-80
2023/07/03 09:38:28;;;;;;;4.78;2.78;;;;;;;;;;5075069;28;20048;-78
2023/07/03 09:40:55;;;;;;;10.60;2.78;;;;;;;;;;5075632;28;20135;-80
2023/07/03 09:43:23;;;;;;;4.93;3.17;;;;;;;;;;5074902;28;20518;-79
2023/07/03 09:45:50;;;;;;;5.22;2.50;;;;;;;;;;5076603;28;20024;-79
2023/07/03 09:48:22;;;;;;;9.60;3.90;;;;;;;;;;5076314;28;20024;-80
2023/07/03 09:50:48;;;;;;;6.18;3.17;;;;;;;;;;5076411;28;20031;-78
2023/07/03 09:53:19;;;;;;;5.10;2.30;;;;;;;;;;5075180;28;20043;-79
2023/07/03 09:55:45;;;;;;;7.43;3.10;;;;;;;;;;5075166;28;20028;-80
2023/07/03 09:58:13;;;;;;;4.10;2.53;;;;;;;;;;5076240;28;20017;-81
2023/07/03 10:00:44;;;;;;;6.45;2.88;;;;;;;;;;5074917;28;20429;-78
2023/07/03 10:03:10;;;;;;;5.03;3.10;;;;;;;;;;5074955;28;20349;-78
2023/07/03 10:05:36;;;;;;;5.47;3.13;;;;;;;;;;5074738;28;20028;-80
2023/07/03 10:08:03;;;;;;;6.22;2.75;;;;;;;;;;5074676;28;20028;-81
2023/07/03 10:10:33;;;;;;;6.07;2.50;;;;;;;;;;5076173;28;20016;-82
2023/07/03 10:12:59;;;;;;;5.72;2.72;;;;;;;;;;5074456;28;20028;-81
2023/07/03 10:15:31;;;;;;;6.05;3.10;;;;;;;;;;5074716;28;20499;-80
2023/07/03 10:17:57;;;;;;;;;;;;;;;;;;5075303;28;20033;-80
2023/07/03 10:20:34;;;;;;;3.58;2.38;;;;;;;;;;5091190;28;19911;-80
2023/07/03 10:23:02;;;;;;;6.07;2.75;;;;;;;;;;5074675;28;20024;-81
2023/07/03 10:25:32;;;;;;;4.88;2.80;;;;;;;;;;5074336;28;20066;-81
2023/07/03 10:28:01;;;;;;;4.18;2.50;;;;;;;;;;5075608;28;20016;-80
2023/07/03 10:30:31;;;;;;;3.92;2.30;;;;;;;;;;5074510;28;20021;-82
2023/07/03 10:32:58;;;;;;;3.95;2.53;;;;;;;;;;5075528;28;20048;-81
2023/07/03 10:35:28;;;;;;;4.53;2.55;;;;;;;;;;5075742;28;20025;-81
2023/07/03 10:38:14;;;;;;;4.85;2.50;;;;;;;;;;5074528;28;20074;-82
2023/07/03 10:40:48;;;;;;;3.85;2.50;;;;;;;;;;5075030;28;20469;-83
2023/07/03 10:43:15;;;;;;;4.40;3.00;;;;;;;;;;5074461;28;20048;-80
2023/07/03 10:45:42;;;;;;;4.30;2.85;;;;;;;;;;5074298;28;20017;-80
2023/07/03 10:48:12;;;;;;;5.20;2.97;;;;;;;;;;5074015;28;20482;-83
2023/07/03 10:50:48;;;;;;;7.63;3.50;;;;;;;;;;5074292;28;20067;-80
2023/07/03 10:53:32;;;;;;;5.05;3.08;;;;;;;;;;5075134;28;20024;-81
2023/07/03 10:55:59;;;;;;;5.00;2.92;;;;;;;;;;5075381;28;20025;-81
2023/07/03 10:58:34;;;;;;;3.92;2.78;;;;;;;;;;5075139;28;20059;-81
2023/07/03 11:01:06;;;;;;;4.97;2.80;;;;;;;;;;5073643;28;20074;-82
2023/07/03 11:03:48;;;;;;;5.50;2.83;;;;;;;;;;5075921;28;20054;-80
2023/07/03 11:06:28;;;;;;;6.50;3.20;;;;;;;;;;5074523;28;20502;-80
2023/07/03 11:08:57;;;;;;;4.57;2.80;;;;;;;;;;5075902;28;20041;-80
2023/07/03 11:11:29;;;;;;;4.95;2.95;;;;;;;;;;5080790;28;20124;-79
2023/07/03 11:14:00;;;;;;;4.03;3.03;;;;;;;;;;5073708;28;20549;-80
2023/07/03 11:16:30;;;;;;;5.90;3.30;;;;;;;;;;5074483;28;20104;-80
2023/07/03 11:19:02;;;;;;;6.13;3.75;;;;;;;;;;5074641;28;20082;-80
2023/07/03 11:21:28;;;;;;;5.70;2.90;;;;;;;;;;5073315;28;20111;-81
2023/07/03 11:24:24;;;;;;;4.90;3.05;;;;;;;;;;5073001;28;20024;-82
2023/07/03 11:27:22;;;;;;;6.80;2.90;;;;;;;;;;5035557;28;20481;-80
2023/07/03 11:29:49;;;;;;;5.47;2.58;;;;;;;;;;4992451;28;20041;-81
2023/07/03 11:32:15;;;;;;;5.63;3.22;;;;;;;;;;4992835;28;20065;-80
2023/07/03 11:34:42;;;;;;;4.32;2.72;;;;;;;;;;4992895;28;20109;-81
2023/07/03 11:37:26;;;;;;;4.18;2.58;;;;;;;;;;4992459;28;20390;-79
2023/07/03 11:39:52;;;;;;;4.70;2.20;;;;;;;;;;4992570;28;20041;-79
2023/07/03 11:42:23;;;;;;;6.40;3.70;;;;;;;;;;4992433;28;20546;-79
2023/07/03 11:44:57;;;;;;;4.47;2.67;;;;;;;;;;4998071;28;20038;-79
2023/07/03 11:47:25;;;;;;;6.32;2.90;;;;;;;;;;5012010;28;20036;-81
2023/07/03 11:50:01;;;;;;;5.82;3.22;;;;;;;;;;5011898;28;20030;-79
2023/07/03 11:52:33;;;;;;;5.45;2.67;;;871.10;1843.20;;;;;;5012235;28;20425;-79
2023/07/03 11:55:04;;;;;;;4.88;3.03;;;871.00;1792.00;;;;;;4995652;28;20030;-76
2023/07/03 11:57:36;;;;;;;6.50;3.22;;;871.10;1792.00;;;;;;5010887;28;20061;-77
2023/07/03 12:00:20;;;;;;;4.63;2.63;;;871.10;1792.00;;;;;;4995226;28;20116;-78
2023/07/03 12:02:48;;;;;;;6.32;3.00;;;871.10;1792.00;;;;;;5018340;28;20060;-77
2023/07/03 12:05:42;;;;;;;5.75;3.03;;;871.20;1817.60;;;;;;5055284;28;20037;-76
2023/07/03 12:08:38;;;;;;;7.10;2.78;;;871.20;1817.60;;;;;;5072308;28;20389;-77
2023/07/03 12:11:05;;;;;;;5.25;3.67;;;871.20;1817.60;;;;;;5070306;28;20064;-76
2023/07/03 12:13:39;;;;;;;6.95;4.00;;;870.90;1817.60;;;;;;5086956;28;20020;-76
2023/07/03 12:16:32;;;;;;;5.70;3.83;;;871.20;1792.00;;;;;;5092296;28;20407;-78
2023/07/03 12:19:04;;;;;;;6.47;3.85;;;871.10;1817.60;;;;;;5093781;28;20024;-78
2023/07/03 12:21:35;;;;;;;6.40;4.60;;;;;;;;;;5092706;28;20042;-77
2023/07/03 12:24:01;;;;;;;5.65;3.55;;;;;;;;;;5090905;28;20027;-77
2023/07/03 12:26:27;;;;;;;5.22;3.85;;;896.00;1817.60;;;;;;5091843;28;20024;-78
2023/07/03 12:29:04;;;;;;;5.82;4.25;;;871.30;1843.20;;;;;;5086099;28;20040;-79
2023/07/03 12:31:30;;;;;;;6.47;4.20;;;;;;;;;;5108999;28;20110;-78
2023/07/03 12:34:00;;;;;;;10.80;5.28;;;896.00;1792.00;;;;;;5093837;28;20046;-79
2023/07/03 12:36:28;;;;;;;5.47;3.90;;;;;;;;;;5091765;28;20046;-81
2023/07/03 12:38:55;;;;;;;5.80;4.18;;;896.40;1817.60;;;;;;5093654;28;20078;-79
2023/07/03 12:41:31;;;;;;;5.57;3.92;;;896.30;1843.20;;;;;;5092510;28;20052;-78
2023/07/03 12:44:00;;;;;;;7.20;3.72;;;896.40;1792.00;;;;;;5092376;28;20035;-78